createdAt,value
2019-04-03T00:02:18.217Z,5.93
2019-04-03T00:04:48.669Z,6.23
2019-04-03T00:07:19.093Z,6.00
2019-04-03T00:09:49.537Z,6.77
2019-04-03T00:12:19.976Z,5.40
2019-04-03T00:14:50.395Z,7.00
2019-04-03T00:17:20.845Z,6.87
2019-04-03T00:19:51.621Z,7.40
2019-04-03T00:22:22.288Z,6.73
2019-04-03T00:24:52.922Z,5.83
2019-04-03T00:27:23.376Z,6.47
2019-04-03T00:29:53.884Z,6.40
2019-04-03T00:32:24.283Z,6.33
2019-04-03T00:34:54.785Z,6.90
2019-04-03T00:37:25.446Z,5.73
2019-04-03T00:39:56.055Z,7.23
2019-04-03T00:42:26.461Z,6.70
2019-04-03T00:44:56.905Z,7.13
2019-04-03T00:47:27.339Z,6.90
2019-04-03T00:49:57.972Z,6.77
2019-04-03T00:52:28.710Z,8.30
2019-04-03T00:54:59.135Z,7.30
2019-04-03T00:57:29.549Z,6.73
2019-04-03T01:00:00.006Z,7.50
2019-04-03T01:02:30.558Z,7.53
2019-04-03T01:05:00.988Z,7.80
2019-04-03T01:07:31.400Z,6.43
2019-04-03T01:10:01.801Z,6.70
2019-04-03T01:12:32.251Z,7.60
2019-04-03T01:15:02.710Z,7.77
2019-04-03T01:17:34.873Z,7.60
2019-04-03T01:20:07.086Z,7.90
2019-04-03T01:22:37.887Z,8.03
2019-04-03T01:25:09.442Z,6.87
2019-04-03T01:27:41.539Z,7.47
2019-04-03T01:30:13.954Z,7.83
2019-04-03T01:32:46.136Z,7.07
2019-04-03T01:35:17.455Z,6.63
2019-04-03T01:37:49.924Z,7.00
2019-04-03T01:40:21.037Z,6.33
2019-04-03T01:42:52.814Z,7.77
2019-04-03T01:45:25.610Z,6.63
2019-04-03T01:47:58.249Z,7.73
2019-04-03T01:50:28.729Z,7.20
2019-04-03T01:53:01.773Z,8.30
2019-04-03T01:55:34.007Z,7.47
2019-04-03T01:58:06.094Z,7.57
2019-04-03T02:00:37.666Z,7.03
2019-04-03T02:03:10.354Z,6.30
2019-04-03T02:05:43.044Z,7.53
2019-04-03T02:08:14.730Z,7.53
2019-04-03T02:10:45.051Z,7.40
2019-04-03T02:13:15.479Z,7.37
2019-04-03T02:15:45.856Z,7.40
2019-04-03T02:18:16.298Z,8.27
2019-04-03T02:20:46.717Z,7.30
2019-04-03T02:23:17.199Z,7.70
2019-04-03T02:25:47.592Z,7.43
2019-04-03T02:28:18.263Z,7.23
2019-04-03T02:30:48.942Z,7.57
2019-04-03T02:33:20.962Z,7.20
2019-04-03T02:35:51.363Z,6.13
2019-04-03T02:38:23.382Z,7.23
2019-04-03T02:40:54.046Z,7.07
2019-04-03T02:43:24.655Z,8.67
2019-04-03T02:45:56.355Z,6.30
2019-04-03T02:48:27.363Z,6.03
2019-04-03T02:50:57.921Z,7.90
2019-04-03T02:53:30.556Z,6.60
2019-04-03T02:56:00.973Z,6.37
2019-04-03T02:58:31.595Z,6.80
2019-04-03T03:01:05.642Z,7.40
2019-04-03T03:03:34.197Z,6.57
2019-04-03T03:06:04.638Z,7.30
2019-04-03T03:08:35.076Z,7.40
2019-04-03T03:11:05.481Z,6.83
2019-04-03T03:13:36.287Z,7.10
2019-04-03T03:16:06.806Z,6.60
2019-04-03T03:18:37.928Z,6.57
2019-04-03T03:21:11.778Z,6.87
2019-04-03T03:23:42.510Z,6.53
2019-04-03T03:26:13.189Z,6.37
2019-04-03T03:28:46.922Z,6.80
2019-04-03T03:31:17.390Z,7.07
2019-04-03T03:33:48.649Z,6.63
2019-04-03T03:36:24.466Z,7.60
2019-04-03T03:38:52.022Z,6.37
2019-04-03T03:41:24.391Z,7.13
2019-04-03T03:43:56.431Z,7.13
2019-04-03T03:46:28.698Z,7.50
2019-04-03T03:48:59.623Z,7.53
2019-04-03T03:51:32.900Z,7.40
2019-04-03T03:54:05.161Z,6.57
2019-04-03T03:56:35.939Z,7.13
2019-04-03T03:59:06.425Z,6.87
2019-04-03T04:01:36.895Z,7.87
2019-04-03T04:04:07.306Z,7.00
2019-04-03T04:06:39.774Z,8.57
2019-04-03T04:09:10.427Z,7.83
2019-04-03T04:11:41.957Z,8.17
2019-04-03T04:14:14.004Z,6.90
2019-04-03T04:16:44.605Z,6.83
2019-04-03T04:19:15.089Z,7.17
2019-04-03T04:21:45.900Z,6.93
2019-04-03T04:24:16.593Z,6.37
2019-04-03T04:26:49.805Z,7.53
2019-04-03T04:29:19.601Z,6.93
2019-04-03T04:31:50.018Z,8.50
2019-04-03T04:34:20.434Z,6.80
2019-04-03T04:36:51.199Z,7.20
2019-04-03T04:39:21.672Z,7.40
2019-04-03T04:41:52.143Z,6.97
2019-04-03T04:44:22.711Z,6.63
2019-04-03T04:46:53.182Z,7.10
2019-04-03T04:49:23.639Z,7.30
2019-04-03T04:51:56.498Z,8.00
2019-04-03T04:54:26.525Z,7.30
2019-04-03T04:56:56.942Z,7.77
2019-04-03T04:59:27.383Z,7.60
2019-04-03T05:01:57.841Z,7.07
2019-04-03T05:04:28.251Z,8.13
2019-04-03T05:07:00.108Z,7.10
2019-04-03T05:09:31.036Z,6.53
2019-04-03T05:12:01.992Z,7.33
2019-04-03T05:14:32.426Z,6.60
2019-04-03T05:17:02.902Z,7.20
2019-04-03T05:19:35.551Z,7.27
2019-04-03T05:22:07.630Z,7.47
2019-04-03T05:24:38.358Z,5.73
2019-04-03T05:27:09.003Z,7.80
2019-04-03T05:29:39.494Z,6.17
2019-04-03T05:32:10.680Z,6.30
2019-04-03T05:34:43.633Z,7.33
2019-04-03T05:37:13.775Z,6.80
2019-04-03T05:39:44.194Z,6.27
2019-04-03T05:42:14.882Z,6.60
2019-04-03T05:44:45.342Z,7.00
2019-04-03T05:47:15.991Z,5.37
2019-04-03T05:49:47.184Z,5.90
2019-04-03T05:52:17.945Z,5.03
2019-04-03T05:54:48.400Z,7.07
2019-04-03T05:57:18.845Z,5.70
2019-04-03T05:59:59.778Z,6.00
2019-04-03T06:02:24.031Z,6.10
2019-04-03T06:04:54.566Z,6.03
2019-04-03T06:07:25.273Z,5.30
2019-04-03T06:09:58.484Z,5.93
2019-04-03T06:12:28.019Z,5.67
2019-04-03T06:14:58.609Z,5.53
2019-04-03T06:17:29.137Z,5.90
2019-04-03T06:19:59.908Z,5.53
2019-04-03T06:22:30.805Z,5.27
2019-04-03T06:25:01.415Z,6.10
2019-04-03T06:30:55.600Z,6.17
2019-04-03T06:33:31.498Z,5.47
2019-04-03T06:36:01.193Z,6.10
2019-04-03T06:38:31.605Z,6.23
2019-04-03T06:41:02.177Z,6.00
2019-04-03T19:11:34.248Z,1.00
2019-04-03T19:14:03.767Z,1.60
2019-04-03T19:16:44.017Z,1.80
2019-04-03T19:19:08.449Z,2.80
2019-04-03T19:21:39.030Z,2.07
2019-04-03T19:24:09.696Z,2.33
2019-04-03T19:26:40.458Z,2.17
2019-04-03T19:29:11.600Z,1.40
2019-04-03T19:37:07.834Z,1.57
2019-04-03T19:39:40.745Z,1.30
2019-04-03T19:42:13.194Z,1.43
2019-04-03T19:44:43.447Z,1.07
2019-04-03T19:47:13.979Z,1.37
2019-04-03T19:49:44.484Z,1.33
2019-04-03T19:52:15.122Z,1.67
2019-04-03T19:54:45.726Z,1.97
2019-04-03T19:57:16.240Z,1.67
2019-04-03T19:59:46.870Z,1.70
2019-04-03T20:02:17.406Z,1.20
2019-04-03T20:04:48.301Z,1.40
2019-04-03T20:07:18.919Z,1.20
2019-04-03T20:09:49.479Z,1.57
2019-04-03T20:12:20.226Z,1.57
2019-04-03T20:14:58.401Z,1.20
2019-04-03T20:17:27.931Z,1.30
2019-04-03T20:19:58.455Z,3.83
2019-04-03T20:22:28.949Z,3.13
2019-04-03T20:25:00.590Z,3.90
2019-04-03T20:27:31.418Z,2.40
2019-04-03T20:30:04.987Z,2.03
2019-04-03T20:32:35.953Z,2.40
2019-04-03T20:35:09.523Z,1.83
2019-04-03T20:37:40.122Z,1.93
2019-04-03T20:40:10.828Z,2.23
2019-04-03T20:42:41.600Z,1.90
2019-04-03T20:45:12.259Z,1.60
2019-04-03T20:47:42.770Z,2.10
2019-04-03T20:50:16.075Z,1.67
2019-04-03T20:52:46.920Z,2.07
2019-04-03T20:55:17.533Z,1.77
2019-04-03T20:57:55.809Z,1.97
2019-04-03T21:00:25.089Z,2.10
2019-04-03T21:02:55.555Z,1.80
2019-04-03T21:05:26.036Z,1.80
2019-04-03T21:07:56.687Z,1.93
2019-04-03T21:10:27.195Z,1.60
2019-04-03T21:13:00.024Z,2.00
2019-04-03T21:15:30.495Z,2.40
2019-04-03T21:18:01.321Z,2.63
2019-04-03T21:20:31.876Z,2.10
2019-04-03T21:23:04.798Z,2.00
2019-04-03T21:25:36.674Z,2.10
2019-04-03T21:28:10.875Z,2.10
2019-04-03T21:30:42.111Z,2.20
2019-04-03T21:33:17.330Z,2.17
2019-04-03T21:35:48.526Z,2.17
2019-04-03T21:38:22.392Z,2.60
2019-04-03T21:40:55.643Z,2.10
2019-04-03T21:43:25.212Z,2.07
2019-04-03T21:45:56.087Z,1.90
2019-04-03T21:48:26.550Z,2.03
2019-04-03T21:50:57.053Z,2.60
2019-04-03T21:53:27.694Z,1.83
2019-04-03T21:55:58.137Z,2.27
2019-04-03T21:58:28.578Z,1.80
2019-04-03T22:01:26.303Z,2.40
2019-04-03T22:03:56.751Z,2.20
2019-04-03T22:06:27.836Z,2.33
2019-04-03T22:09:00.387Z,1.77
2019-04-03T22:11:30.698Z,2.57
2019-04-03T22:14:01.587Z,1.83
2019-04-03T22:16:32.042Z,2.40
2019-04-03T22:19:02.742Z,2.00
2019-04-03T22:21:33.177Z,2.47
2019-04-03T22:24:06.593Z,2.00
2019-04-03T22:26:36.087Z,2.40
2019-04-03T22:29:07.192Z,1.97
2019-04-03T22:31:37.822Z,1.70
2019-04-03T22:34:08.347Z,2.40
2019-04-03T22:36:39.268Z,2.27
2019-04-03T22:39:10.278Z,2.20
2019-04-03T22:41:40.944Z,2.23
2019-04-03T22:44:12.947Z,2.47
2019-04-03T22:46:43.543Z,2.40
2019-04-03T22:49:14.034Z,2.50
2019-04-03T22:51:44.493Z,2.63
2019-04-03T22:54:15.035Z,4.30
2019-04-03T22:56:47.499Z,2.53
2019-04-03T22:59:17.678Z,2.70
2019-04-03T23:01:48.073Z,2.30
2019-04-03T23:04:18.594Z,2.40
2019-04-03T23:06:49.729Z,2.37
2019-04-03T23:09:20.626Z,2.13
2019-04-03T23:11:51.053Z,2.50
2019-04-03T23:14:21.790Z,2.03
2019-04-03T23:16:52.171Z,2.10
2019-04-03T23:19:22.646Z,2.80
2019-04-03T23:21:54.849Z,2.77
2019-04-03T23:24:28.501Z,2.23
2019-04-03T23:26:57.474Z,2.53
2019-04-03T23:29:27.924Z,2.87
2019-04-03T23:31:58.373Z,2.40
2019-04-03T23:34:28.794Z,2.70
2019-04-03T23:36:59.353Z,3.37
2019-04-03T23:39:29.847Z,2.97
2019-04-03T23:42:00.439Z,2.50
2019-04-03T23:44:30.924Z,3.40
2019-04-03T23:47:01.344Z,3.93
2019-04-03T23:49:31.791Z,3.03
2019-04-03T23:52:02.606Z,3.80
2019-04-03T23:54:33.929Z,3.03
2019-04-03T23:57:05.115Z,3.60
2019-04-03T23:59:35.563Z,3.70
